sensor_id;sensor_type;location;lat;lon;timestamp;P1;durP1;ratioP1;P2;durP2;ratioP2
10446;SDS011;5271;44.422;26.092;2023-04-24T00:00:11;0.70;;;0.70;;
10446;SDS011;5271;44.422;26.092;2023-04-24T00:02:39;0.90;;;0.90;;
10446;SDS011;5271;44.422;26.092;2023-04-24T00:05:11;0.90;;;0.90;;
10446;SDS011;5271;44.422;26.092;2023-04-24T00:07:40;0.90;;;0.90;;
10446;SDS011;5271;44.422;26.092;2023-04-24T00:10:07;0.90;;;0.90;;
10446;SDS011;5271;44.422;26.092;2023-04-24T00:12:34;0.90;;;0.90;;
10446;SDS011;5271;44.422;26.092;2023-04-24T00:15:02;0.90;;;0.90;;
10446;SDS011;5271;44.422;26.092;2023-04-24T00:17:29;0.90;;;0.90;;
10446;SDS011;5271;44.422;26.092;2023-04-24T00:19:56;0.90;;;0.90;;
10446;SDS011;5271;44.422;26.092;2023-04-24T00:22:24;0.90;;;0.90;;
10446;SDS011;5271;44.422;26.092;2023-04-24T00:24:52;0.90;;;0.90;;
10446;SDS011;5271;44.422;26.092;2023-04-24T00:27:19;0.90;;;0.90;;
10446;SDS011;5271;44.422;26.092;2023-04-24T00:29:46;0.90;;;0.90;;
10446;SDS011;5271;44.422;26.092;2023-04-24T00:32:13;1.00;;;1.00;;
10446;SDS011;5271;44.422;26.092;2023-04-24T00:34:40;1.00;;;1.00;;
10446;SDS011;5271;44.422;26.092;2023-04-24T00:37:07;0.90;;;0.90;;
10446;SDS011;5271;44.422;26.092;2023-04-24T00:39:34;0.90;;;0.90;;
10446;SDS011;5271;44.422;26.092;2023-04-24T00:42:02;0.90;;;0.90;;
10446;SDS011;5271;44.422;26.092;2023-04-24T00:44:31;0.93;;;0.93;;
10446;SDS011;5271;44.422;26.092;2023-04-24T00:46:59;1.00;;;1.00;;
10446;SDS011;5271;44.422;26.092;2023-04-24T00:49:26;1.00;;;1.00;;
10446;SDS011;5271;44.422;26.092;2023-04-24T00:51:53;1.00;;;1.00;;
10446;SDS011;5271;44.422;26.092;2023-04-24T00:54:21;0.93;;;0.93;;
10446;SDS011;5271;44.422;26.092;2023-04-24T00:56:48;0.93;;;0.93;;
10446;SDS011;5271;44.422;26.092;2023-04-24T00:59:17;0.90;;;0.90;;
10446;SDS011;5271;44.422;26.092;2023-04-24T01:01:44;0.90;;;0.90;;
10446;SDS011;5271;44.422;26.092;2023-04-24T01:04:11;1.00;;;1.00;;
10446;SDS011;5271;44.422;26.092;2023-04-24T01:06:39;1.00;;;1.00;;
10446;SDS011;5271;44.422;26.092;2023-04-24T01:09:07;1.00;;;1.00;;
10446;SDS011;5271;44.422;26.092;2023-04-24T01:11:34;0.90;;;0.90;;
10446;SDS011;5271;44.422;26.092;2023-04-24T01:14:01;0.90;;;0.90;;
10446;SDS011;5271;44.422;26.092;2023-04-24T01:16:29;1.00;;;1.00;;
10446;SDS011;5271;44.422;26.092;2023-04-24T01:18:56;0.90;;;0.90;;
10446;SDS011;5271;44.422;26.092;2023-04-24T01:21:23;0.90;;;0.90;;
10446;SDS011;5271;44.422;26.092;2023-04-24T01:23:55;1.00;;;1.00;;
10446;SDS011;5271;44.422;26.092;2023-04-24T01:26:22;1.00;;;1.00;;
10446;SDS011;5271;44.422;26.092;2023-04-24T01:28:50;0.90;;;0.90;;
10446;SDS011;5271;44.422;26.092;2023-04-24T01:31:18;0.90;;;0.90;;
10446;SDS011;5271;44.422;26.092;2023-04-24T01:33:46;0.80;;;0.80;;
10446;SDS011;5271;44.422;26.092;2023-04-24T01:36:13;0.90;;;0.90;;
10446;SDS011;5271;44.422;26.092;2023-04-24T01:38:40;0.90;;;0.90;;
10446;SDS011;5271;44.422;26.092;2023-04-24T01:41:08;0.90;;;0.90;;
10446;SDS011;5271;44.422;26.092;2023-04-24T01:43:36;0.83;;;0.83;;
10446;SDS011;5271;44.422;26.092;2023-04-24T01:46:03;0.90;;;0.90;;
10446;SDS011;5271;44.422;26.092;2023-04-24T01:48:30;0.90;;;0.90;;
10446;SDS011;5271;44.422;26.092;2023-04-24T01:50:58;0.90;;;0.90;;
10446;SDS011;5271;44.422;26.092;2023-04-24T01:53:25;1.00;;;1.00;;
10446;SDS011;5271;44.422;26.092;2023-04-24T01:55:52;1.00;;;1.00;;
10446;SDS011;5271;44.422;26.092;2023-04-24T01:58:20;0.90;;;0.90;;
10446;SDS011;5271;44.422;26.092;2023-04-24T02:00:47;0.90;;;0.90;;
10446;SDS011;5271;44.422;26.092;2023-04-24T02:03:14;0.90;;;0.90;;
10446;SDS011;5271;44.422;26.092;2023-04-24T02:05:43;1.00;;;1.00;;
10446;SDS011;5271;44.422;26.092;2023-04-24T02:08:10;0.83;;;0.83;;
10446;SDS011;5271;44.422;26.092;2023-04-24T02:10:37;0.90;;;0.90;;
10446;SDS011;5271;44.422;26.092;2023-04-24T02:13:03;0.90;;;0.90;;
10446;SDS011;5271;44.422;26.092;2023-04-24T02:15:32;1.00;;;1.00;;
10446;SDS011;5271;44.422;26.092;2023-04-24T02:17:59;0.90;;;0.90;;
10446;SDS011;5271;44.422;26.092;2023-04-24T02:20:26;0.90;;;0.90;;
10446;SDS011;5271;44.422;26.092;2023-04-24T02:22:52;1.00;;;1.00;;
10446;SDS011;5271;44.422;26.092;2023-04-24T02:25:20;0.90;;;0.90;;
10446;SDS011;5271;44.422;26.092;2023-04-24T02:27:47;1.10;;;1.10;;
10446;SDS011;5271;44.422;26.092;2023-04-24T02:30:14;1.10;;;1.10;;
10446;SDS011;5271;44.422;26.092;2023-04-24T02:32:42;1.00;;;1.00;;
10446;SDS011;5271;44.422;26.092;2023-04-24T02:35:09;1.00;;;1.00;;
10446;SDS011;5271;44.422;26.092;2023-04-24T02:37:36;1.00;;;1.00;;
10446;SDS011;5271;44.422;26.092;2023-04-24T02:40:03;0.90;;;0.90;;
10446;SDS011;5271;44.422;26.092;2023-04-24T02:42:31;0.90;;;0.90;;
10446;SDS011;5271;44.422;26.092;2023-04-24T02:44:58;1.00;;;1.00;;
10446;SDS011;5271;44.422;26.092;2023-04-24T02:47:25;1.00;;;1.00;;
10446;SDS011;5271;44.422;26.092;2023-04-24T02:49:53;0.97;;;0.97;;
10446;SDS011;5271;44.422;26.092;2023-04-24T02:52:20;0.90;;;0.90;;
10446;SDS011;5271;44.422;26.092;2023-04-24T02:54:46;1.00;;;1.00;;
10446;SDS011;5271;44.422;26.092;2023-04-24T02:57:13;0.90;;;0.90;;
10446;SDS011;5271;44.422;26.092;2023-04-24T02:59:40;0.90;;;0.90;;
10446;SDS011;5271;44.422;26.092;2023-04-24T03:02:07;0.90;;;0.90;;
10446;SDS011;5271;44.422;26.092;2023-04-24T03:04:34;1.00;;;1.00;;
10446;SDS011;5271;44.422;26.092;2023-04-24T03:07:02;1.00;;;1.00;;
10446;SDS011;5271;44.422;26.092;2023-04-24T03:09:29;1.00;;;1.00;;
10446;SDS011;5271;44.422;26.092;2023-04-24T03:11:56;0.90;;;0.90;;
10446;SDS011;5271;44.422;26.092;2023-04-24T03:14:23;0.90;;;0.90;;
10446;SDS011;5271;44.422;26.092;2023-04-24T03:16:50;0.90;;;0.90;;
10446;SDS011;5271;44.422;26.092;2023-04-24T03:19:17;1.00;;;1.00;;
10446;SDS011;5271;44.422;26.092;2023-04-24T03:21:44;0.90;;;0.90;;
10446;SDS011;5271;44.422;26.092;2023-04-24T03:24:12;1.00;;;1.00;;
10446;SDS011;5271;44.422;26.092;2023-04-24T03:26:39;0.90;;;0.90;;
10446;SDS011;5271;44.422;26.092;2023-04-24T03:29:06;0.90;;;0.90;;
10446;SDS011;5271;44.422;26.092;2023-04-24T03:31:33;0.90;;;0.90;;
10446;SDS011;5271;44.422;26.092;2023-04-24T03:34:00;1.00;;;1.00;;
10446;SDS011;5271;44.422;26.092;2023-04-24T03:36:26;0.90;;;0.90;;
10446;SDS011;5271;44.422;26.092;2023-04-24T03:38:53;0.90;;;0.90;;
10446;SDS011;5271;44.422;26.092;2023-04-24T03:41:21;0.90;;;0.90;;
10446;SDS011;5271;44.422;26.092;2023-04-24T03:43:48;1.00;;;1.00;;
10446;SDS011;5271;44.422;26.092;2023-04-24T03:46:15;1.00;;;1.00;;
10446;SDS011;5271;44.422;26.092;2023-04-24T03:48:42;0.90;;;0.90;;
10446;SDS011;5271;44.422;26.092;2023-04-24T03:51:09;0.90;;;0.90;;
10446;SDS011;5271;44.422;26.092;2023-04-24T03:53:36;1.00;;;1.00;;
10446;SDS011;5271;44.422;26.092;2023-04-24T03:56:03;0.90;;;0.90;;
10446;SDS011;5271;44.422;26.092;2023-04-24T03:58:31;1.00;;;1.00;;
10446;SDS011;5271;44.422;26.092;2023-04-24T04:00:58;1.00;;;1.00;;
10446;SDS011;5271;44.422;26.092;2023-04-24T04:03:25;0.90;;;0.90;;
10446;SDS011;5271;44.422;26.092;2023-04-24T04:05:52;0.90;;;0.90;;
10446;SDS011;5271;44.422;26.092;2023-04-24T04:08:19;1.00;;;1.00;;
10446;SDS011;5271;44.422;26.092;2023-04-24T04:10:46;1.00;;;1.00;;
10446;SDS011;5271;44.422;26.092;2023-04-24T04:13:12;0.90;;;0.90;;
10446;SDS011;5271;44.422;26.092;2023-04-24T04:15:41;0.90;;;0.90;;
10446;SDS011;5271;44.422;26.092;2023-04-24T04:18:08;1.00;;;1.00;;
10446;SDS011;5271;44.422;26.092;2023-04-24T04:20:34;1.00;;;1.00;;
10446;SDS011;5271;44.422;26.092;2023-04-24T04:23:01;1.00;;;1.00;;
10446;SDS011;5271;44.422;26.092;2023-04-24T04:25:28;1.00;;;1.00;;
10446;SDS011;5271;44.422;26.092;2023-04-24T04:27:55;1.00;;;1.00;;
10446;SDS011;5271;44.422;26.092;2023-04-24T04:30:23;1.00;;;1.00;;
10446;SDS011;5271;44.422;26.092;2023-04-24T04:32:52;1.00;;;1.00;;
10446;SDS011;5271;44.422;26.092;2023-04-24T04:35:19;1.00;;;1.00;;
10446;SDS011;5271;44.422;26.092;2023-04-24T04:37:45;1.00;;;1.00;;
10446;SDS011;5271;44.422;26.092;2023-04-24T04:40:12;1.00;;;1.00;;
10446;SDS011;5271;44.422;26.092;2023-04-24T04:42:39;1.00;;;1.00;;
10446;SDS011;5271;44.422;26.092;2023-04-24T04:45:06;1.00;;;1.00;;
10446;SDS011;5271;44.422;26.092;2023-04-24T04:47:36;1.00;;;1.00;;
10446;SDS011;5271;44.422;26.092;2023-04-24T04:50:06;1.00;;;1.00;;
10446;SDS011;5271;44.422;26.092;2023-04-24T04:52:33;1.00;;;1.00;;
10446;SDS011;5271;44.422;26.092;2023-04-24T04:55:00;1.00;;;1.00;;
10446;SDS011;5271;44.422;26.092;2023-04-24T04:57:27;1.00;;;1.00;;
10446;SDS011;5271;44.422;26.092;2023-04-24T04:59:55;1.00;;;1.00;;
10446;SDS011;5271;44.422;26.092;2023-04-24T05:02:21;1.00;;;1.00;;
10446;SDS011;5271;44.422;26.092;2023-04-24T05:04:48;1.00;;;1.00;;
10446;SDS011;5271;44.422;26.092;2023-04-24T05:07:17;1.00;;;1.00;;
10446;SDS011;5271;44.422;26.092;2023-04-24T05:09:44;1.00;;;1.00;;
10446;SDS011;5271;44.422;26.092;2023-04-24T05:12:11;0.90;;;0.90;;
10446;SDS011;5271;44.422;26.092;2023-04-24T05:14:38;0.90;;;0.90;;
10446;SDS011;5271;44.422;26.092;2023-04-24T05:17:05;1.00;;;1.00;;
10446;SDS011;5271;44.422;26.092;2023-04-24T05:19:32;1.00;;;1.00;;
10446;SDS011;5271;44.422;26.092;2023-04-24T05:22:01;0.90;;;0.90;;
10446;SDS011;5271;44.422;26.092;2023-04-24T05:24:30;0.90;;;0.90;;
10446;SDS011;5271;44.422;26.092;2023-04-24T05:26:57;0.90;;;0.90;;
10446;SDS011;5271;44.422;26.092;2023-04-24T05:29:24;1.00;;;1.00;;
10446;SDS011;5271;44.422;26.092;2023-04-24T05:31:52;0.90;;;0.90;;
10446;SDS011;5271;44.422;26.092;2023-04-24T05:34:19;1.00;;;1.00;;
10446;SDS011;5271;44.422;26.092;2023-04-24T05:36:45;0.90;;;0.90;;
10446;SDS011;5271;44.422;26.092;2023-04-24T05:39:12;0.90;;;0.90;;
10446;SDS011;5271;44.422;26.092;2023-04-24T05:41:41;0.90;;;0.90;;
10446;SDS011;5271;44.422;26.092;2023-04-24T05:44:08;1.00;;;1.00;;
10446;SDS011;5271;44.422;26.092;2023-04-24T05:46:35;1.00;;;1.00;;
10446;SDS011;5271;44.422;26.092;2023-04-24T05:49:02;1.00;;;1.00;;
10446;SDS011;5271;44.422;26.092;2023-04-24T05:51:29;0.90;;;0.90;;
10446;SDS011;5271;44.422;26.092;2023-04-24T05:53:56;0.90;;;0.90;;
10446;SDS011;5271;44.422;26.092;2023-04-24T05:56:23;0.90;;;0.90;;
10446;SDS011;5271;44.422;26.092;2023-04-24T05:58:52;0.90;;;0.90;;
10446;SDS011;5271;44.422;26.092;2023-04-24T06:01:18;0.90;;;0.90;;
10446;SDS011;5271;44.422;26.092;2023-04-24T06:03:45;0.90;;;0.90;;
10446;SDS011;5271;44.422;26.092;2023-04-24T06:06:12;0.90;;;0.90;;
10446;SDS011;5271;44.422;26.092;2023-04-24T06:08:40;1.00;;;1.00;;
10446;SDS011;5271;44.422;26.092;2023-04-24T06:11:09;1.00;;;1.00;;
10446;SDS011;5271;44.422;26.092;2023-04-24T06:13:36;0.90;;;0.90;;
10446;SDS011;5271;44.422;26.092;2023-04-24T06:16:04;1.00;;;1.00;;
10446;SDS011;5271;44.422;26.092;2023-04-24T06:18:31;0.90;;;0.90;;
10446;SDS011;5271;44.422;26.092;2023-04-24T06:20:58;0.90;;;0.90;;
10446;SDS011;5271;44.422;26.092;2023-04-24T06:23:25;0.90;;;0.90;;
10446;SDS011;5271;44.422;26.092;2023-04-24T06:25:52;0.90;;;0.90;;
10446;SDS011;5271;44.422;26.092;2023-04-24T06:28:18;0.90;;;0.90;;
10446;SDS011;5271;44.422;26.092;2023-04-24T06:30:45;0.90;;;0.90;;
10446;SDS011;5271;44.422;26.092;2023-04-24T06:33:13;1.00;;;1.00;;
10446;SDS011;5271;44.422;26.092;2023-04-24T06:35:42;1.00;;;1.00;;
10446;SDS011;5271;44.422;26.092;2023-04-24T06:38:09;1.00;;;1.00;;
10446;SDS011;5271;44.422;26.092;2023-04-24T06:40:36;1.00;;;1.00;;
10446;SDS011;5271;44.422;26.092;2023-04-24T06:43:03;1.00;;;1.00;;
10446;SDS011;5271;44.422;26.092;2023-04-24T06:45:31;1.00;;;1.00;;
10446;SDS011;5271;44.422;26.092;2023-04-24T06:47:58;1.00;;;1.00;;
10446;SDS011;5271;44.422;26.092;2023-04-24T06:50:26;1.00;;;1.00;;
10446;SDS011;5271;44.422;26.092;2023-04-24T06:52:53;0.90;;;0.90;;
10446;SDS011;5271;44.422;26.092;2023-04-24T06:55:19;1.00;;;1.00;;
10446;SDS011;5271;44.422;26.092;2023-04-24T06:57:46;1.00;;;1.00;;
10446;SDS011;5271;44.422;26.092;2023-04-24T07:00:13;1.00;;;1.00;;
10446;SDS011;5271;44.422;26.092;2023-04-24T07:02:41;1.10;;;1.10;;
10446;SDS011;5271;44.422;26.092;2023-04-24T07:05:08;1.00;;;1.00;;
10446;SDS011;5271;44.422;26.092;2023-04-24T07:07:36;1.10;;;1.10;;
10446;SDS011;5271;44.422;26.092;2023-04-24T07:10:05;1.10;;;1.10;;
10446;SDS011;5271;44.422;26.092;2023-04-24T07:12:33;1.10;;;1.10;;
10446;SDS011;5271;44.422;26.092;2023-04-24T07:15:00;1.10;;;1.10;;
10446;SDS011;5271;44.422;26.092;2023-04-24T07:17:28;1.10;;;1.10;;
10446;SDS011;5271;44.422;26.092;2023-04-24T07:19:55;1.10;;;1.10;;
10446;SDS011;5271;44.422;26.092;2023-04-24T07:22:21;1.00;;;1.00;;
10446;SDS011;5271;44.422;26.092;2023-04-24T07:24:50;1.00;;;1.00;;
10446;SDS011;5271;44.422;26.092;2023-04-24T07:27:17;1.07;;;1.07;;
10446;SDS011;5271;44.422;26.092;2023-04-24T07:29:43;1.03;;;1.03;;
10446;SDS011;5271;44.422;26.092;2023-04-24T07:32:10;1.07;;;1.07;;
10446;SDS011;5271;44.422;26.092;2023-04-24T07:34:37;1.00;;;1.00;;
10446;SDS011;5271;44.422;26.092;2023-04-24T07:37:05;1.10;;;1.10;;
10446;SDS011;5271;44.422;26.092;2023-04-24T07:39:32;0.80;;;0.80;;
10446;SDS011;5271;44.422;26.092;2023-04-24T07:42:00;0.80;;;0.80;;
10446;SDS011;5271;44.422;26.092;2023-04-24T07:44:27;0.70;;;0.70;;
10446;SDS011;5271;44.422;26.092;2023-04-24T07:46:54;0.70;;;0.70;;
10446;SDS011;5271;44.422;26.092;2023-04-24T07:49:22;0.50;;;0.50;;
10446;SDS011;5271;44.422;26.092;2023-04-24T07:51:48;0.50;;;0.50;;
10446;SDS011;5271;44.422;26.092;2023-04-24T07:54:15;0.40;;;0.40;;
10446;SDS011;5271;44.422;26.092;2023-04-24T07:56:43;0.30;;;0.30;;
10446;SDS011;5271;44.422;26.092;2023-04-24T07:59:11;0.40;;;0.40;;
10446;SDS011;5271;44.422;26.092;2023-04-24T08:01:38;0.40;;;0.40;;
10446;SDS011;5271;44.422;26.092;2023-04-24T08:04:05;0.50;;;0.50;;
10446;SDS011;5271;44.422;26.092;2023-04-24T08:06:32;0.50;;;0.50;;
10446;SDS011;5271;44.422;26.092;2023-04-24T08:08:59;0.50;;;0.50;;
10446;SDS011;5271;44.422;26.092;2023-04-24T08:11:26;0.50;;;0.50;;
10446;SDS011;5271;44.422;26.092;2023-04-24T08:13:53;0.60;;;0.60;;
10446;SDS011;5271;44.422;26.092;2023-04-24T08:16:22;0.60;;;0.60;;
10446;SDS011;5271;44.422;26.092;2023-04-24T08:18:49;0.60;;;0.60;;
10446;SDS011;5271;44.422;26.092;2023-04-24T08:21:16;0.60;;;0.60;;
10446;SDS011;5271;44.422;26.092;2023-04-24T08:23:43;0.60;;;0.60;;
10446;SDS011;5271;44.422;26.092;2023-04-24T08:26:10;0.60;;;0.60;;
10446;SDS011;5271;44.422;26.092;2023-04-24T08:28:38;0.63;;;0.63;;
10446;SDS011;5271;44.422;26.092;2023-04-24T08:31:05;0.60;;;0.60;;
10446;SDS011;5271;44.422;26.092;2023-04-24T08:33:33;0.70;;;0.70;;
10446;SDS011;5271;44.422;26.092;2023-04-24T08:36:00;0.70;;;0.70;;
10446;SDS011;5271;44.422;26.092;2023-04-24T08:38:28;0.67;;;0.67;;
10446;SDS011;5271;44.422;26.092;2023-04-24T08:40:55;0.70;;;0.70;;
10446;SDS011;5271;44.422;26.092;2023-04-24T08:43:24;0.70;;;0.70;;
10446;SDS011;5271;44.422;26.092;2023-04-24T08:45:51;0.70;;;0.70;;
10446;SDS011;5271;44.422;26.092;2023-04-24T08:48:19;0.70;;;0.70;;
10446;SDS011;5271;44.422;26.092;2023-04-24T08:50:49;0.70;;;0.70;;
10446;SDS011;5271;44.422;26.092;2023-04-24T08:53:17;0.70;;;0.70;;
10446;SDS011;5271;44.422;26.092;2023-04-24T08:55:46;0.80;;;0.80;;
10446;SDS011;5271;44.422;26.092;2023-04-24T08:58:15;0.80;;;0.80;;
10446;SDS011;5271;44.422;26.092;2023-04-24T09:00:43;0.70;;;0.70;;
10446;SDS011;5271;44.422;26.092;2023-04-24T09:03:12;0.70;;;0.70;;
10446;SDS011;5271;44.422;26.092;2023-04-24T09:05:40;0.70;;;0.70;;
10446;SDS011;5271;44.422;26.092;2023-04-24T09:08:12;0.70;;;0.70;;
10446;SDS011;5271;44.422;26.092;2023-04-24T09:10:40;0.70;;;0.70;;
10446;SDS011;5271;44.422;26.092;2023-04-24T09:13:07;0.70;;;0.70;;
10446;SDS011;5271;44.422;26.092;2023-04-24T09:15:35;0.70;;;0.70;;
10446;SDS011;5271;44.422;26.092;2023-04-24T09:18:02;0.60;;;0.60;;
10446;SDS011;5271;44.422;26.092;2023-04-24T09:20:29;0.70;;;0.70;;
10446;SDS011;5271;44.422;26.092;2023-04-24T09:22:56;0.67;;;0.67;;
10446;SDS011;5271;44.422;26.092;2023-04-24T09:25:26;0.50;;;0.50;;
10446;SDS011;5271;44.422;26.092;2023-04-24T09:27:59;0.60;;;0.60;;
10446;SDS011;5271;44.422;26.092;2023-04-24T09:30:27;0.60;;;0.60;;
10446;SDS011;5271;44.422;26.092;2023-04-24T09:33:09;0.60;;;0.60;;
10446;SDS011;5271;44.422;26.092;2023-04-24T09:35:37;0.60;;;0.60;;
10446;SDS011;5271;44.422;26.092;2023-04-24T09:38:07;0.60;;;0.60;;
10446;SDS011;5271;44.422;26.092;2023-04-24T09:40:35;0.60;;;0.60;;
10446;SDS011;5271;44.422;26.092;2023-04-24T09:43:02;0.60;;;0.60;;
10446;SDS011;5271;44.422;26.092;2023-04-24T09:45:31;0.60;;;0.60;;
10446;SDS011;5271;44.422;26.092;2023-04-24T09:48:02;0.60;;;0.60;;
10446;SDS011;5271;44.422;26.092;2023-04-24T09:50:30;0.60;;;0.60;;
10446;SDS011;5271;44.422;26.092;2023-04-24T09:53:01;0.60;;;0.60;;
10446;SDS011;5271;44.422;26.092;2023-04-24T09:55:29;0.60;;;0.60;;
10446;SDS011;5271;44.422;26.092;2023-04-24T09:57:57;0.60;;;0.60;;
10446;SDS011;5271;44.422;26.092;2023-04-24T10:00:25;0.60;;;0.60;;
10446;SDS011;5271;44.422;26.092;2023-04-24T10:02:56;0.50;;;0.50;;
10446;SDS011;5271;44.422;26.092;2023-04-24T10:05:25;0.50;;;0.50;;
10446;SDS011;5271;44.422;26.092;2023-04-24T10:07:59;0.50;;;0.50;;
10446;SDS011;5271;44.422;26.092;2023-04-24T10:10:28;0.50;;;0.50;;
10446;SDS011;5271;44.422;26.092;2023-04-24T10:12:55;0.50;;;0.50;;
10446;SDS011;5271;44.422;26.092;2023-04-24T10:15:24;0.50;;;0.50;;
10446;SDS011;5271;44.422;26.092;2023-04-24T10:17:53;0.50;;;0.50;;
10446;SDS011;5271;44.422;26.092;2023-04-24T10:20:20;0.50;;;0.50;;
10446;SDS011;5271;44.422;26.092;2023-04-24T10:22:49;0.50;;;0.50;;
10446;SDS011;5271;44.422;26.092;2023-04-24T10:25:17;0.50;;;0.50;;
10446;SDS011;5271;44.422;26.092;2023-04-24T10:27:45;0.50;;;0.50;;
10446;SDS011;5271;44.422;26.092;2023-04-24T10:30:15;0.60;;;0.60;;
10446;SDS011;5271;44.422;26.092;2023-04-24T10:32:42;0.50;;;0.50;;
10446;SDS011;5271;44.422;26.092;2023-04-24T10:35:09;0.50;;;0.50;;
10446;SDS011;5271;44.422;26.092;2023-04-24T10:37:39;0.50;;;0.50;;
10446;SDS011;5271;44.422;26.092;2023-04-24T10:40:09;0.50;;;0.50;;
10446;SDS011;5271;44.422;26.092;2023-04-24T10:42:39;0.50;;;0.50;;
10446;SDS011;5271;44.422;26.092;2023-04-24T10:45:06;0.50;;;0.50;;
10446;SDS011;5271;44.422;26.092;2023-04-24T10:47:43;0.50;;;0.50;;
10446;SDS011;5271;44.422;26.092;2023-04-24T10:50:17;0.50;;;0.50;;
10446;SDS011;5271;44.422;26.092;2023-04-24T10:52:45;0.50;;;0.50;;
10446;SDS011;5271;44.422;26.092;2023-04-24T10:55:12;0.50;;;0.50;;
10446;SDS011;5271;44.422;26.092;2023-04-24T10:57:40;0.50;;;0.50;;
10446;SDS011;5271;44.422;26.092;2023-04-24T11:00:27;0.50;;;0.50;;
10446;SDS011;5271;44.422;26.092;2023-04-24T11:02:55;0.50;;;0.50;;
10446;SDS011;5271;44.422;26.092;2023-04-24T11:05:48;0.50;;;0.50;;
10446;SDS011;5271;44.422;26.092;2023-04-24T11:08:21;0.50;;;0.50;;
10446;SDS011;5271;44.422;26.092;2023-04-24T11:10:54;0.50;;;0.50;;
10446;SDS011;5271;44.422;26.092;2023-04-24T11:13:22;0.50;;;0.50;;
10446;SDS011;5271;44.422;26.092;2023-04-24T11:18:40;0.50;;;0.50;;
10446;SDS011;5271;44.422;26.092;2023-04-24T11:21:11;0.50;;;0.50;;
10446;SDS011;5271;44.422;26.092;2023-04-24T11:23:38;0.40;;;0.40;;
10446;SDS011;5271;44.422;26.092;2023-04-24T11:26:12;0.50;;;0.50;;
10446;SDS011;5271;44.422;26.092;2023-04-24T11:28:46;0.40;;;0.40;;
10446;SDS011;5271;44.422;26.092;2023-04-24T11:34:11;0.50;;;0.50;;
10446;SDS011;5271;44.422;26.092;2023-04-24T11:36:39;0.50;;;0.50;;
10446;SDS011;5271;44.422;26.092;2023-04-24T11:39:06;0.50;;;0.50;;
10446;SDS011;5271;44.422;26.092;2023-04-24T11:41:33;0.50;;;0.50;;
10446;SDS011;5271;44.422;26.092;2023-04-24T11:44:00;0.60;;;0.60;;
10446;SDS011;5271;44.422;26.092;2023-04-24T11:46:28;0.60;;;0.60;;
10446;SDS011;5271;44.422;26.092;2023-04-24T11:48:57;0.53;;;0.53;;
10446;SDS011;5271;44.422;26.092;2023-04-24T11:51:26;0.50;;;0.50;;
10446;SDS011;5271;44.422;26.092;2023-04-24T11:53:54;0.50;;;0.50;;
10446;SDS011;5271;44.422;26.092;2023-04-24T11:56:21;0.57;;;0.57;;
10446;SDS011;5271;44.422;26.092;2023-04-24T11:58:48;0.50;;;0.50;;
10446;SDS011;5271;44.422;26.092;2023-04-24T12:01:18;0.50;;;0.50;;
10446;SDS011;5271;44.422;26.092;2023-04-24T12:03:47;0.50;;;0.50;;
10446;SDS011;5271;44.422;26.092;2023-04-24T12:06:16;0.50;;;0.50;;
10446;SDS011;5271;44.422;26.092;2023-04-24T12:08:47;0.50;;;0.50;;
10446;SDS011;5271;44.422;26.092;2023-04-24T12:11:14;0.50;;;0.50;;
10446;SDS011;5271;44.422;26.092;2023-04-24T12:13:43;0.50;;;0.50;;
10446;SDS011;5271;44.422;26.092;2023-04-24T12:16:11;0.50;;;0.50;;
10446;SDS011;5271;44.422;26.092;2023-04-24T12:18:42;0.50;;;0.50;;
10446;SDS011;5271;44.422;26.092;2023-04-24T12:21:17;0.50;;;0.50;;
10446;SDS011;5271;44.422;26.092;2023-04-24T12:23:44;0.50;;;0.50;;
10446;SDS011;5271;44.422;26.092;2023-04-24T12:26:15;0.50;;;0.50;;
10446;SDS011;5271;44.422;26.092;2023-04-24T12:28:45;0.40;;;0.40;;
10446;SDS011;5271;44.422;26.092;2023-04-24T12:31:14;0.50;;;0.50;;
10446;SDS011;5271;44.422;26.092;2023-04-24T12:33:41;0.50;;;0.50;;
10446;SDS011;5271;44.422;26.092;2023-04-24T12:36:09;0.50;;;0.50;;
10446;SDS011;5271;44.422;26.092;2023-04-24T12:38:38;0.40;;;0.40;;
10446;SDS011;5271;44.422;26.092;2023-04-24T12:41:08;0.50;;;0.50;;
10446;SDS011;5271;44.422;26.092;2023-04-24T12:43:35;0.50;;;0.50;;
10446;SDS011;5271;44.422;26.092;2023-04-24T12:46:03;0.50;;;0.50;;
10446;SDS011;5271;44.422;26.092;2023-04-24T12:48:30;0.40;;;0.40;;
10446;SDS011;5271;44.422;26.092;2023-04-24T12:50:58;0.40;;;0.40;;
10446;SDS011;5271;44.422;26.092;2023-04-24T12:53:26;0.50;;;0.50;;
10446;SDS011;5271;44.422;26.092;2023-04-24T12:55:56;0.50;;;0.50;;
10446;SDS011;5271;44.422;26.092;2023-04-24T12:58:24;0.50;;;0.50;;
10446;SDS011;5271;44.422;26.092;2023-04-24T13:00:51;0.40;;;0.40;;
10446;SDS011;5271;44.422;26.092;2023-04-24T13:03:18;0.50;;;0.50;;
10446;SDS011;5271;44.422;26.092;2023-04-24T13:05:45;0.50;;;0.50;;
10446;SDS011;5271;44.422;26.092;2023-04-24T13:08:12;0.40;;;0.40;;
10446;SDS011;5271;44.422;26.092;2023-04-24T13:10:42;0.40;;;0.40;;
10446;SDS011;5271;44.422;26.092;2023-04-24T13:13:09;0.50;;;0.50;;
10446;SDS011;5271;44.422;26.092;2023-04-24T13:15:37;0.40;;;0.40;;
10446;SDS011;5271;44.422;26.092;2023-04-24T13:18:04;0.50;;;0.50;;
10446;SDS011;5271;44.422;26.092;2023-04-24T13:20:31;0.43;;;0.43;;
10446;SDS011;5271;44.422;26.092;2023-04-24T13:23:00;0.50;;;0.50;;
10446;SDS011;5271;44.422;26.092;2023-04-24T13:25:27;0.50;;;0.50;;
10446;SDS011;5271;44.422;26.092;2023-04-24T13:27:54;0.40;;;0.40;;
10446;SDS011;5271;44.422;26.092;2023-04-24T13:30:21;0.50;;;0.50;;
10446;SDS011;5271;44.422;26.092;2023-04-24T13:32:49;0.47;;;0.47;;
10446;SDS011;5271;44.422;26.092;2023-04-24T13:35:16;0.40;;;0.40;;
10446;SDS011;5271;44.422;26.092;2023-04-24T13:37:43;0.40;;;0.40;;
10446;SDS011;5271;44.422;26.092;2023-04-24T13:40:10;0.40;;;0.40;;
10446;SDS011;5271;44.422;26.092;2023-04-24T13:42:37;0.40;;;0.40;;
10446;SDS011;5271;44.422;26.092;2023-04-24T13:45:04;0.40;;;0.40;;
10446;SDS011;5271;44.422;26.092;2023-04-24T13:47:32;0.40;;;0.40;;
10446;SDS011;5271;44.422;26.092;2023-04-24T13:50:00;0.50;;;0.50;;
10446;SDS011;5271;44.422;26.092;2023-04-24T13:52:27;0.40;;;0.40;;
10446;SDS011;5271;44.422;26.092;2023-04-24T13:54:54;0.40;;;0.40;;
10446;SDS011;5271;44.422;26.092;2023-04-24T13:57:21;0.50;;;0.50;;
10446;SDS011;5271;44.422;26.092;2023-04-24T13:59:47;0.40;;;0.40;;
10446;SDS011;5271;44.422;26.092;2023-04-24T14:02:14;0.40;;;0.40;;
10446;SDS011;5271;44.422;26.092;2023-04-24T14:04:41;0.50;;;0.50;;
10446;SDS011;5271;44.422;26.092;2023-04-24T14:07:09;0.40;;;0.40;;
10446;SDS011;5271;44.422;26.092;2023-04-24T14:09:36;0.40;;;0.40;;
10446;SDS011;5271;44.422;26.092;2023-04-24T14:12:03;0.40;;;0.40;;
10446;SDS011;5271;44.422;26.092;2023-04-24T14:14:30;0.40;;;0.40;;
10446;SDS011;5271;44.422;26.092;2023-04-24T14:16:57;0.40;;;0.40;;
10446;SDS011;5271;44.422;26.092;2023-04-24T14:19:24;0.40;;;0.40;;
10446;SDS011;5271;44.422;26.092;2023-04-24T14:21:51;0.50;;;0.50;;
10446;SDS011;5271;44.422;26.092;2023-04-24T14:24:20;0.50;;;0.50;;
10446;SDS011;5271;44.422;26.092;2023-04-24T14:26:47;0.50;;;0.50;;
10446;SDS011;5271;44.422;26.092;2023-04-24T14:29:13;0.50;;;0.50;;
10446;SDS011;5271;44.422;26.092;2023-04-24T14:31:41;0.40;;;0.40;;
10446;SDS011;5271;44.422;26.092;2023-04-24T14:34:08;0.50;;;0.50;;
10446;SDS011;5271;44.422;26.092;2023-04-24T14:36:35;0.40;;;0.40;;
10446;SDS011;5271;44.422;26.092;2023-04-24T14:39:03;0.40;;;0.40;;
10446;SDS011;5271;44.422;26.092;2023-04-24T14:41:32;0.40;;;0.40;;
10446;SDS011;5271;44.422;26.092;2023-04-24T14:44:00;0.50;;;0.50;;
10446;SDS011;5271;44.422;26.092;2023-04-24T14:46:28;0.50;;;0.50;;
10446;SDS011;5271;44.422;26.092;2023-04-24T14:48:55;0.50;;;0.50;;
10446;SDS011;5271;44.422;26.092;2023-04-24T14:51:22;0.40;;;0.40;;
10446;SDS011;5271;44.422;26.092;2023-04-24T14:53:50;0.50;;;0.50;;
10446;SDS011;5271;44.422;26.092;2023-04-24T14:56:17;0.40;;;0.40;;